Time;durP1;ratioP1;P1;durP2;ratioP2;P2;SDS_P1;SDS_P2;PMS_P1;PMS_P2;Temp;Humidity;BMP_temperature;BMP_pressure;BME280_temperature;BME280_humidity;BME280_pressure;Samples;Min_cycle;Max_cycle;Signal;HPM_P1;HPM_P2
2021/11/30 00:05:07;;;;;;;24.92;11.55;;;;;;;1.11;100.00;97816.29;4443572;79;28470;-86
2021/11/30 00:11:12;;;;;;;25.75;11.33;;;;;;;1.06;100.00;97816.58;4280974;82;28493;-85
2021/11/30 00:17:14;;;;;;;22.22;10.98;;;;;;;1.08;100.00;97818.52;4255952;84;28483;-82
2021/11/30 00:23:16;;;;;;;23.57;11.63;;;;;;;1.12;100.00;97821.06;4334685;80;28537;-82
2021/11/30 00:29:18;;;;;;;22.80;10.60;;;;;;;1.09;100.00;97825.44;4416397;79;28458;-83
2021/11/30 00:35:25;;;;;;;24.40;11.33;;;;;;;1.16;100.00;97831.58;4421450;80;28450;-82
2021/11/30 00:41:24;;;;;;;24.75;11.48;;;;;;;1.08;100.00;97840.49;4333796;82;28598;-81
2021/11/30 00:47:30;;;;;;;22.75;11.22;;;;;;;0.95;100.00;97861.14;4408858;81;28485;-81
2021/11/30 00:53:32;;;;;;;19.77;10.05;;;;;;;0.95;100.00;97877.52;4409148;81;28474;-83
2021/11/30 00:59:33;;;;;;;18.40;9.95;;;;;;;0.86;100.00;97896.72;4366989;81;28497;-84
2021/11/30 01:05:36;;;;;;;17.02;8.65;;;;;;;0.88;100.00;97896.51;4357686;82;28441;-85
2021/11/30 01:11:38;;;;;;;18.80;9.35;;;;;;;0.84;100.00;97913.31;4357180;82;43919;-85
2021/11/30 01:17:40;;;;;;;17.92;9.18;;;;;;;0.81;100.00;97924.27;4329701;82;43916;-84
2021/11/30 01:23:41;;;;;;;19.27;9.75;;;;;;;0.71;100.00;97917.19;4341076;81;28499;-83
2021/11/30 01:29:43;;;;;;;22.15;10.38;;;;;;;0.76;100.00;97926.17;4412800;80;28480;-81
2021/11/30 01:35:45;;;;;;;19.00;9.93;;;;;;;0.66;100.00;97931.83;4439710;80;28511;-83
2021/11/30 01:41:47;;;;;;;21.02;10.38;;;;;;;0.72;100.00;97933.37;4440866;80;28476;-85
2021/11/30 01:54:06;;;;;;;22.13;10.65;;;;;;;0.75;100.00;97943.58;4485120;79;28480;-87
2021/11/30 02:00:09;;;;;;;19.45;9.65;;;;;;;0.73;100.00;97945.09;4495789;79;28459;-84
2021/11/30 02:06:12;;;;;;;23.18;11.28;;;;;;;0.83;100.00;97945.56;4466841;79;28493;-85
2021/11/30 02:12:13;;;;;;;18.48;9.55;;;;;;;0.82;100.00;97949.71;4530412;79;28473;-86
2021/11/30 02:18:21;;;;;;;18.48;9.95;;;;;;;0.84;100.00;97954.33;4520963;78;28896;-85
2021/11/30 02:24:18;;;;;;;17.82;9.00;;;;;;;0.82;100.00;97953.68;4446315;78;28505;-85
2021/11/30 02:30:20;;;;;;;19.87;10.25;;;;;;;0.90;100.00;97962.80;4443644;80;28497;-86
2021/11/30 02:36:37;;;;;;;21.15;10.72;;;;;;;0.91;100.00;97972.37;4330494;81;28449;-85
2021/11/30 02:42:33;;;;;;;26.07;11.75;;;;;;;0.86;100.00;97968.17;4330165;82;28493;-86
2021/11/30 02:48:34;;;;;;;23.85;11.28;;;;;;;0.86;100.00;97971.31;4330835;82;28454;-87
2021/11/30 02:54:41;;;;;;;22.00;11.03;;;;;;;0.90;100.00;97976.03;4396916;80;28470;-88
2021/11/30 03:00:43;;;;;;;19.45;10.23;;;;;;;0.88;100.00;97980.70;4397951;80;28510;-87
2021/11/30 03:06:44;;;;;;;20.02;10.48;;;;;;;0.86;100.00;97976.61;4396122;80;28442;-84
2021/11/30 03:12:48;;;;;;;22.77;10.43;;;;;;;0.84;100.00;97979.47;4328946;82;28489;-84
2021/11/30 03:18:49;;;;;;;19.12;10.60;;;;;;;0.82;100.00;97982.80;4327226;82;28461;-84
2021/11/30 03:24:51;;;;;;;18.55;10.13;;;;;;;0.86;100.00;97993.81;4333197;82;28493;-84
2021/11/30 03:30:57;;;;;;;18.42;9.55;;;;;;;0.78;100.00;97988.17;4334191;82;28473;-83
2021/11/30 03:36:56;;;;;;;18.75;9.00;;;;;;;0.85;100.00;97984.23;4415235;80;28461;-85
2021/11/30 03:42:58;;;;;;;17.92;9.50;;;;;;;0.80;100.00;97969.77;4394872;80;28450;-84
2021/11/30 03:49:03;;;;;;;16.97;9.23;;;;;;;0.83;100.00;97985.25;4426134;80;28456;-84
2021/11/30 03:55:06;;;;;;;18.67;10.00;;;;;;;0.84;100.00;97987.41;4433130;80;28546;-82
2021/11/30 04:01:08;;;;;;;20.43;10.30;;;;;;;0.78;100.00;97978.91;4438742;79;28460;-82
2021/11/30 04:07:09;;;;;;;19.27;10.30;;;;;;;0.79;100.00;97981.86;4316664;80;28504;-83
2021/11/30 04:13:11;;;;;;;21.07;9.95;;;;;;;0.80;100.00;97992.27;4301884;83;28450;-84
2021/11/30 04:19:13;;;;;;;18.10;9.48;;;;;;;0.89;100.00;97994.77;4397677;81;28493;-84
2021/11/30 04:25:16;;;;;;;16.57;9.25;;;;;;;0.85;100.00;97999.62;4429276;79;28459;-84
2021/11/30 04:31:18;;;;;;;18.05;9.75;;;;;;;0.86;100.00;97993.31;4421110;80;28486;-86
2021/11/30 04:37:20;;;;;;;15.55;8.43;;;;;;;0.90;100.00;98003.81;4395965;80;28496;-82
2021/11/30 04:43:21;;;;;;;18.42;9.20;;;;;;;0.91;100.00;97993.54;4421367;80;28482;-82
2021/11/30 04:55:30;;;;;;;16.12;8.83;;;;;;;0.82;100.00;97996.86;4404021;80;28521;-80
2021/11/30 05:01:32;;;;;;;15.88;8.28;;;;;;;0.88;100.00;98007.17;4409363;80;28459;-81
2021/11/30 05:07:33;;;;;;;12.78;7.67;;;;;;;0.88;100.00;98012.46;4393209;79;28470;-81
2021/11/30 05:13:35;;;;;;;13.95;7.72;;;;;;;0.93;100.00;98009.23;4418104;81;28505;-82
2021/11/30 05:19:36;;;;;;;14.00;7.97;;;;;;;0.95;100.00;98007.20;4421482;80;28454;-78
2021/11/30 05:25:40;;;;;;;14.75;8.08;;;;;;;0.79;100.00;98005.19;4239671;83;28492;-79
2021/11/30 05:31:42;;;;;;;15.15;7.55;;;;;;;0.71;100.00;98001.85;4303185;81;28440;-77
2021/11/30 05:37:44;;;;;;;13.65;8.00;;;;;;;0.61;100.00;98006.97;4288549;83;28514;-78
2021/11/30 05:43:45;;;;;;;14.03;7.60;;;;;;;0.67;100.00;98013.32;4296737;83;28478;-78
2021/11/30 05:49:47;;;;;;;15.38;7.67;;;;;;;0.64;100.00;98014.55;4273862;83;28515;-80
2021/11/30 05:55:56;;;;;;;10.98;6.78;;;;;;;0.61;100.00;98014.11;4266471;83;28456;-84
2021/11/30 06:01:58;;;;;;;12.98;8.20;;;;;;;0.67;100.00;98016.80;4266597;82;28521;-84
2021/11/30 06:08:00;;;;;;;12.90;7.55;;;;;;;0.74;100.00;98021.33;4266565;82;28505;-83
2021/11/30 06:14:03;;;;;;;13.30;7.00;;;;;;;0.77;100.00;98024.38;4266892;83;28479;-85
2021/11/30 06:20:06;;;;;;;11.05;6.70;;;;;;;0.78;100.00;98019.92;4266368;82;28500;-85
2021/11/30 06:26:09;;;;;;;12.75;6.78;;;;;;;0.78;100.00;98002.23;4268842;83;28476;-85
2021/11/30 06:32:11;;;;;;;10.00;6.12;;;;;;;0.86;100.00;98018.95;4269516;83;28458;-86
2021/11/30 06:38:12;;;;;;;11.65;6.87;;;;;;;0.92;100.00;98011.58;4270507;83;28491;-86
2021/11/30 06:44:14;;;;;;;9.85;6.15;;;;;;;0.96;100.00;98015.45;4261968;83;28515;-86
2021/11/30 06:50:15;;;;;;;9.73;5.95;;;;;;;1.05;100.00;98001.05;4267549;83;28510;-86
2021/11/30 06:56:16;;;;;;;8.93;5.80;;;;;;;1.00;100.00;98007.95;4247641;83;28526;-79
2021/11/30 07:02:20;;;;;;;10.20;5.70;;;;;;;0.99;100.00;98014.26;4250328;83;28540;-78
2021/11/30 07:08:44;;;;;;;10.90;6.10;;;;;;;1.09;100.00;98012.91;4269597;83;28470;-76
2021/11/30 07:14:26;;;;;;;11.88;6.10;;;;;;;1.03;100.00;98021.62;4266372;83;28478;-83
2021/11/30 07:20:28;;;;;;;10.68;6.08;;;;;;;1.09;100.00;98031.44;4252771;81;28467;-82
2021/11/30 07:26:30;;;;;;;10.28;6.22;;;;;;;1.14;100.00;98019.44;4299255;82;28514;-80
2021/11/30 07:32:31;;;;;;;12.58;6.83;;;;;;;1.27;100.00;98020.83;4415423;79;28480;-81
2021/11/30 07:38:33;;;;;;;13.15;6.60;;;;;;;1.30;100.00;98010.35;4391515;79;28493;-81
2021/11/30 07:44:34;;;;;;;14.38;6.70;;;;;;;1.31;100.00;98010.17;4430331;78;28548;-85
2021/11/30 07:50:37;;;;;;;11.28;5.95;;;;;;;1.29;100.00;97997.61;4416645;78;28446;-83
2021/11/30 07:56:38;;;;;;;11.18;6.20;;;;;;;1.38;100.00;98000.92;4426473;79;28526;-82
2021/11/30 08:02:40;;;;;;;11.43;6.12;;;;;;;1.36;100.00;97995.81;4435703;78;28449;-79
2021/11/30 08:08:42;;;;;;;10.90;6.03;;;;;;;1.50;100.00;97995.37;4413865;79;28867;-80
2021/11/30 08:14:43;;;;;;;10.70;6.12;;;;;;;1.55;100.00;97993.45;4422011;79;28543;-81
2021/11/30 08:20:46;;;;;;;15.30;6.65;;;;;;;1.77;100.00;97981.38;4399991;78;28571;-81
2021/11/30 08:26:47;;;;;;;17.32;6.25;;;;;;;1.96;100.00;97965.20;4219416;81;28507;-79
2021/11/30 08:32:49;;;;;;;11.63;5.87;;;;;;;1.77;100.00;97953.55;4377625;79;28630;-83
2021/11/30 08:38:51;;;;;;;12.40;6.83;;;;;;;1.95;100.00;97939.22;4375301;79;28430;-82
2021/11/30 08:44:54;;;;;;;11.73;7.00;;;;;;;1.94;100.00;97943.38;4380802;79;28558;-81
2021/11/30 08:50:59;;;;;;;13.20;7.03;;;;;;;1.81;100.00;97944.17;4384533;79;28549;-83
2021/11/30 08:57:03;;;;;;;15.53;7.70;;;;;;;1.91;100.00;97931.34;4379345;79;28520;-82
2021/11/30 09:03:05;;;;;;;13.90;7.70;;;;;;;1.94;100.00;97929.63;4388684;79;28489;-84
2021/11/30 09:09:08;;;;;;;12.00;7.33;;;;;;;1.99;100.00;97930.35;4368335;79;28495;-81
2021/11/30 09:15:10;;;;;;;9.23;5.37;;;;;;;2.13;100.00;97922.39;4234916;82;28459;-79
2021/11/30 09:21:12;;;;;;;6.90;4.30;;;;;;;2.33;100.00;97908.62;4222511;82;28480;-77
2021/11/30 09:27:13;;;;;;;6.80;3.92;;;;;;;2.48;100.00;97905.74;4396616;79;28547;-78
2021/11/30 09:33:15;;;;;;;5.37;3.10;;;;;;;2.61;100.00;97886.84;4407125;79;28444;-78
2021/11/30 09:39:17;;;;;;;4.97;3.12;;;;;;;2.56;100.00;97868.88;4411863;80;28532;-77
2021/11/30 09:45:22;;;;;;;7.28;4.05;;;;;;;2.46;100.00;97868.00;4414922;80;28502;-77
2021/11/30 09:51:23;;;;;;;5.80;2.95;;;;;;;2.53;100.00;97848.08;4365755;79;28485;-76
2021/11/30 09:57:25;;;;;;;6.25;3.50;;;;;;;2.61;100.00;97841.72;4420089;79;28482;-76
2021/11/30 10:03:28;;;;;;;11.30;3.70;;;;;;;2.81;100.00;97820.41;4418331;79;28509;-74
2021/11/30 10:09:29;;;;;;;6.22;3.15;;;;;;;3.17;100.00;97807.06;4405408;79;28520;-76
2021/11/30 10:15:46;;;;;;;3.85;2.90;;;;;;;3.05;100.00;97790.98;4407756;79;28510;-74
2021/11/30 10:21:53;;;;;;;5.50;3.30;;;;;;;3.11;100.00;97775.23;4427821;79;28495;-84
2021/11/30 10:27:59;;;;;;;4.92;2.87;;;;;;;2.92;100.00;97749.41;4383469;81;28487;-78
2021/11/30 10:34:10;;;;;;;;;;;;;;;2.99;100.00;97755.17;4384709;79;28493;-76
2021/11/30 10:40:19;;;;;;;3.98;2.87;;;;;;;3.08;100.00;97727.87;4360619;79;20263;-78
2021/11/30 10:46:24;;;;;;;7.67;3.35;;;;;;;3.13;100.00;97718.73;4380044;79;28510;-73
2021/11/30 10:52:31;;;;;;;24.03;4.47;;;;;;;3.24;100.00;97710.06;4372924;79;37758;-75
2021/11/30 10:58:34;;;;;;;;;;;;;;;3.31;100.00;97693.56;4392831;80;28538;-72
2021/11/30 11:04:37;;;;;;;14.75;4.12;;;;;;;3.48;100.00;97663.77;4391615;80;20142;-75
2021/11/30 11:10:45;;;;;;;17.62;3.17;;;;;;;3.66;100.00;97655.02;4390930;80;28494;-73
2021/11/30 11:16:54;;;;;;;8.28;2.80;;;;;;;3.62;91.91;97629.91;4358352;80;28435;-72
2021/11/30 11:22:57;;;;;;;32.58;5.22;;;;;;;3.74;95.83;97617.49;4378799;80;28463;-74
2021/11/30 11:29:04;;;;;;;12.98;3.47;;;;;;;3.84;95.53;97597.55;4359801;80;28489;-74
2021/11/30 11:35:07;;;;;;;13.15;2.98;;;;;;;3.88;99.39;97585.45;4442001;79;28486;-73
2021/11/30 11:41:09;;;;;;;5.72;2.58;;;;;;;3.98;100.00;97563.64;4442353;79;28454;-73
2021/11/30 11:47:15;;;;;;;8.20;2.62;;;;;;;3.94;100.00;97542.53;4442225;79;28484;-74
2021/11/30 11:53:33;;;;;;;7.17;2.83;;;;;;;3.94;100.00;97526.04;4370904;80;28508;-73
2021/11/30 11:59:43;;;;;;;45.67;6.42;;;;;;;4.02;97.59;97501.00;4383580;79;28473;-73
2021/11/30 12:05:54;;;;;;;5.30;2.62;;;;;;;4.03;98.18;97490.66;4351309;81;28584;-74
2021/11/30 12:12:10;;;;;;;3.80;2.12;;;;;;;3.79;94.42;97473.80;4380434;81;28548;-74
2021/11/30 12:18:32;;;;;;;5.57;3.97;;;;;;;3.54;97.72;97466.75;4381061;81;28511;-73
2021/11/30 12:24:47;;;;;;;5.83;3.55;;;;;;;3.62;100.00;97442.52;4381041;81;28520;-74
2021/11/30 12:30:55;;;;;;;5.83;3.75;;;;;;;3.50;100.00;97426.55;4404035;79;28469;-73
2021/11/30 12:37:08;;;;;;;6.30;3.95;;;;;;;3.28;100.00;97406.29;4408669;81;28545;-73
2021/11/30 12:43:13;;;;;;;4.83;3.15;;;;;;;3.09;100.00;97389.58;4415298;79;28482;-74
2021/11/30 12:49:31;;;;;;;6.70;3.35;;;;;;;2.95;100.00;97359.72;4394792;80;28467;-73
2021/11/30 12:55:52;;;;;;;5.47;3.47;;;;;;;2.84;100.00;97324.10;4407952;78;28459;-71
2021/11/30 13:02:25;;;;;;;6.75;3.30;;;;;;;2.69;100.00;97316.52;4403047;79;28527;-72
2021/11/30 13:08:27;;;;;;;4.15;2.40;;;;;;;2.55;100.00;97311.37;4366615;79;28555;-81
2021/11/30 13:14:28;;;;;;;5.45;2.98;;;;;;;2.69;100.00;97308.06;4396894;80;28516;-77
2021/11/30 13:20:31;;;;;;;5.22;2.90;;;;;;;2.79;100.00;97296.90;4384386;79;28932;-80
2021/11/30 13:26:34;;;;;;;5.47;2.75;;;;;;;2.75;100.00;97291.76;4367111;81;28512;-81
2021/11/30 13:32:52;;;;;;;5.05;2.87;;;;;;;2.69;100.00;97281.52;4392537;81;28476;-83
2021/11/30 13:38:54;;;;;;;4.90;3.05;;;;;;;2.61;100.00;97274.68;4405600;81;28482;-83
2021/11/30 13:44:55;;;;;;;4.03;2.35;;;;;;;2.61;100.00;97268.05;4397925;81;28513;-84
2021/11/30 13:51:00;;;;;;;5.78;2.95;;;;;;;2.57;100.00;97263.41;4340504;79;28446;-83
2021/11/30 13:57:10;;;;;;;6.00;2.90;;;;;;;2.54;100.00;97254.55;4431506;79;28480;-83
2021/11/30 14:03:41;;;;;;;5.10;2.75;;;;;;;2.46;100.00;97241.91;4327172;79;28454;-82
2021/11/30 14:09:48;;;;;;;6.42;2.65;;;;;;;2.46;100.00;97225.98;4488841;79;28508;-84
2021/11/30 14:15:59;;;;;;;3.65;2.10;;;;;;;2.47;100.00;97201.08;4439787;79;28494;-82
2021/11/30 14:22:06;;;;;;;3.47;2.15;;;;;;;2.53;100.00;97195.89;4381637;79;28484;-79
2021/11/30 14:28:16;;;;;;;9.98;3.42;;;;;;;2.62;100.00;97183.43;4235314;81;28638;-78
2021/11/30 14:34:18;;;;;;;5.58;2.70;;;;;;;2.72;100.00;97175.45;4277475;80;28460;-75
2021/11/30 14:40:28;;;;;;;4.92;2.83;;;;;;;2.71;100.00;97175.13;4288896;80;28557;-75
2021/11/30 14:46:30;;;;;;;4.00;2.52;;;;;;;2.67;100.00;97160.70;4388154;79;28443;-78
2021/11/30 14:52:43;;;;;;;5.37;2.40;;;;;;;2.59;100.00;97157.33;4368149;79;28509;-80
2021/11/30 14:58:47;;;;;;;4.92;2.22;;;;;;;2.48;100.00;97145.66;4385740;80;28502;-79
2021/11/30 15:04:49;;;;;;;3.60;2.00;;;;;;;2.35;100.00;97137.36;4405882;79;28469;-76
2021/11/30 15:11:07;;;;;;;4.05;1.90;;;;;;;2.17;100.00;97119.65;4373945;80;28575;-76
2021/11/30 15:17:13;;;;;;;4.12;1.85;;;;;;;2.22;100.00;97109.70;4343688;81;28501;-76
2021/11/30 15:23:14;;;;;;;3.27;1.63;;;;;;;2.31;100.00;97100.39;4378046;80;28520;-75
2021/11/30 15:29:21;;;;;;;3.12;1.90;;;;;;;2.23;100.00;97088.23;4400487;79;28495;-74
2021/11/30 15:35:22;;;;;;;3.55;2.08;;;;;;;2.33;100.00;97090.87;4400320;79;28534;-73
2021/11/30 15:41:24;;;;;;;5.90;2.90;;;;;;;2.33;100.00;97088.22;4392305;78;28520;-75
2021/11/30 15:47:25;;;;;;;7.08;3.70;;;;;;;2.22;100.00;97089.28;4411456;79;28474;-74
2021/11/30 15:53:27;;;;;;;8.55;4.45;;;;;;;2.17;100.00;97076.41;4417286;79;28505;-81
2021/11/30 15:59:28;;;;;;;7.17;4.08;;;;;;;2.10;100.00;97072.52;4419183;79;28463;-80
2021/11/30 16:05:30;;;;;;;9.68;5.03;;;;;;;2.21;100.00;97069.09;4415047;79;28569;-85
2021/11/30 16:11:32;;;;;;;5.80;3.35;;;;;;;2.19;100.00;97061.11;4338775;81;28501;-85
2021/11/30 16:17:34;;;;;;;8.95;4.40;;;;;;;2.25;100.00;97050.90;4355516;79;28462;-83
2021/11/30 16:23:38;;;;;;;5.08;2.55;;;;;;;2.22;100.00;97043.41;4400132;79;28505;-85
2021/11/30 16:29:39;;;;;;;4.60;2.35;;;;;;;2.24;100.00;97037.35;4408959;79;28540;-82
2021/11/30 16:35:41;;;;;;;3.67;2.02;;;;;;;2.31;100.00;97042.05;4427761;79;28483;-82
2021/11/30 16:41:43;;;;;;;3.98;1.87;;;;;;;2.39;100.00;97036.11;4398686;79;28469;-79
2021/11/30 16:47:45;;;;;;;3.67;1.57;;;;;;;2.43;100.00;97020.84;4396366;79;28524;-76
2021/11/30 16:53:46;;;;;;;3.55;1.60;;;;;;;2.49;100.00;97027.08;4387041;79;28492;-75
2021/11/30 16:59:49;;;;;;;4.67;2.00;;;;;;;2.57;100.00;97016.67;4389748;79;28518;-74
2021/11/30 17:05:53;;;;;;;4.30;1.82;;;;;;;2.58;100.00;97025.70;4392905;79;28525;-76
2021/11/30 17:12:00;;;;;;;3.00;1.40;;;;;;;2.60;100.00;97021.51;4401310;79;28574;-77
2021/11/30 17:18:03;;;;;;;4.85;1.67;;;;;;;2.72;100.00;97026.84;4397208;79;28499;-74
2021/11/30 17:24:06;;;;;;;5.65;1.57;;;;;;;2.86;100.00;97009.63;4405927;79;28552;-74
2021/11/30 17:30:10;;;;;;;3.08;1.62;;;;;;;2.86;100.00;97011.47;4368787;80;28470;-73
2021/11/30 17:36:12;;;;;;;4.12;1.77;;;;;;;2.87;100.00;97007.80;4366404;81;28478;-76
2021/11/30 17:42:15;;;;;;;4.12;1.55;;;;;;;2.93;100.00;97002.88;4403635;78;28531;-74
2021/11/30 17:48:16;;;;;;;3.50;1.62;;;;;;;2.95;100.00;97011.41;4401122;78;28505;-75
2021/11/30 17:54:18;;;;;;;3.55;1.52;;;;;;;3.12;100.00;97020.01;4389799;79;28509;-72
2021/11/30 18:00:20;;;;;;;2.45;1.27;;;;;;;3.13;100.00;97019.79;4383601;79;28466;-75
2021/11/30 18:06:22;;;;;;;2.58;1.10;;;;;;;3.14;100.00;97015.27;4379441;79;28528;-73
2021/11/30 18:12:24;;;;;;;2.87;1.30;;;;;;;3.21;100.00;96996.83;4388978;79;28517;-71
2021/11/30 18:18:25;;;;;;;3.52;1.70;;;;;;;3.16;100.00;97034.42;4394047;79;28502;-73
2021/11/30 18:24:27;;;;;;;2.15;1.00;;;;;;;3.11;100.00;97020.52;4256628;82;28572;-71
2021/11/30 18:30:29;;;;;;;5.35;1.45;;;;;;;3.06;100.00;97019.09;4366452;81;28451;-75
2021/11/30 18:36:30;;;;;;;4.72;1.22;;;;;;;3.02;100.00;97010.78;4367063;79;28481;-75
2021/11/30 18:42:32;;;;;;;3.83;1.70;;;;;;;3.18;100.00;97011.91;4375046;79;28465;-75
2021/11/30 18:48:34;;;;;;;3.35;1.35;;;;;;;3.19;100.00;97018.84;4373511;79;28459;-76
2021/11/30 18:54:38;;;;;;;3.58;1.40;;;;;;;3.28;100.00;97023.80;4383224;79;28537;-73
2021/11/30 19:00:39;;;;;;;4.40;1.40;;;;;;;3.26;100.00;97025.34;4377704;79;28491;-74
2021/11/30 19:06:41;;;;;;;4.10;1.47;;;;;;;3.37;100.00;97029.55;4375466;79;28445;-74
2021/11/30 19:12:45;;;;;;;3.50;1.37;;;;;;;3.14;100.00;97041.31;4358029;79;28466;-76
2021/11/30 19:18:47;;;;;;;2.98;1.20;;;;;;;3.10;100.00;97045.99;4396585;80;28491;-75
2021/11/30 19:24:49;;;;;;;2.85;1.05;;;;;;;3.14;100.00;97036.52;4378944;79;28491;-74
2021/11/30 19:30:57;;;;;;;3.60;1.07;;;;;;;3.15;100.00;97046.91;4387779;80;28535;-74
2021/11/30 19:36:56;;;;;;;2.08;0.98;;;;;;;3.20;100.00;97062.94;4371096;79;28507;-73
2021/11/30 19:42:59;;;;;;;2.40;1.02;;;;;;;3.19;100.00;97055.23;4380137;79;28453;-72
2021/11/30 19:49:02;;;;;;;3.55;1.45;;;;;;;3.27;100.00;97078.75;4389123;79;28599;-75
2021/11/30 19:55:05;;;;;;;2.62;1.17;;;;;;;3.28;100.00;97080.40;4396632;79;28445;-78
2021/11/30 20:07:08;;;;;;;2.70;0.95;;;;;;;3.04;100.00;97084.36;4386554;79;28635;-75
2021/11/30 20:13:11;;;;;;;2.58;1.20;;;;;;;3.06;100.00;97091.58;4398222;79;28520;-79
2021/11/30 20:19:13;;;;;;;4.72;1.32;;;;;;;2.99;100.00;97094.06;4379656;79;28443;-79
2021/11/30 20:25:15;;;;;;;3.02;1.32;;;;;;;2.97;100.00;97089.00;4397790;79;28508;-78
2021/11/30 20:31:16;;;;;;;3.50;1.00;;;;;;;3.05;100.00;97099.25;4433913;79;28515;-77
2021/11/30 20:43:43;;;;;;;4.22;1.05;;;;;;;2.94;100.00;97122.62;4399528;79;28583;-78
2021/11/30 20:49:45;;;;;;;4.25;1.50;;;;;;;2.95;100.00;97117.59;4386752;79;28512;-76
2021/11/30 20:55:47;;;;;;;3.42;1.00;;;;;;;2.86;100.00;97125.09;4379916;79;28483;-76
2021/11/30 21:08:12;;;;;;;2.98;1.12;;;;;;;2.87;100.00;97115.30;4388385;79;28457;-76
2021/11/30 21:14:14;;;;;;;4.22;1.30;;;;;;;2.80;100.00;97131.30;4400254;79;28508;-76
2021/11/30 21:20:19;;;;;;;5.85;1.45;;;;;;;2.87;100.00;97144.50;4398687;79;28434;-76
2021/11/30 21:26:21;;;;;;;3.92;1.60;;;;;;;2.75;100.00;97153.22;4386110;80;28551;-76
2021/11/30 21:32:23;;;;;;;4.62;1.10;;;;;;;2.74;100.00;97179.47;4358161;79;28442;-80
2021/11/30 21:38:25;;;;;;;6.12;2.55;;;;;;;2.84;100.00;97181.59;4390791;79;28479;-76
2021/11/30 21:44:27;;;;;;;4.83;1.50;;;;;;;2.93;100.00;97180.73;4386541;79;28482;-76
2021/11/30 21:50:29;;;;;;;5.95;1.40;;;;;;;3.09;100.00;97187.23;4372933;80;28478;-77
2021/11/30 21:56:31;;;;;;;4.05;0.98;;;;;;;3.19;100.00;97206.61;4371186;80;28511;-75
2021/11/30 22:02:34;;;;;;;4.80;1.27;;;;;;;3.13;100.00;97214.14;4353053;81;28959;-77
2021/11/30 22:08:36;;;;;;;3.58;1.22;;;;;;;2.99;100.00;97221.50;4196366;83;28539;-75
2021/11/30 22:14:38;;;;;;;3.12;1.15;;;;;;;3.25;100.00;97221.61;4389054;79;28457;-75
2021/11/30 22:20:40;;;;;;;3.35;1.17;;;;;;;3.25;100.00;97240.73;4389475;79;28493;-76
2021/11/30 22:26:44;;;;;;;3.35;1.40;;;;;;;3.28;100.00;97236.28;4382023;81;28455;-79
2021/11/30 22:32:46;;;;;;;3.87;1.55;;;;;;;3.28;100.00;97254.38;4411874;78;28579;-78
2021/11/30 22:38:48;;;;;;;5.80;1.42;;;;;;;3.27;100.00;97273.19;4367097;80;28441;-77
2021/11/30 22:44:56;;;;;;;4.20;1.50;;;;;;;3.18;100.00;97279.35;4371999;80;28447;-77
2021/11/30 22:50:59;;;;;;;2.90;1.45;;;;;;;3.26;100.00;97271.03;4366614;79;28519;-79
2021/11/30 22:57:00;;;;;;;3.27;1.17;;;;;;;3.22;100.00;97276.52;4403867;80;28466;-77
2021/11/30 23:03:02;;;;;;;5.47;1.60;;;;;;;3.25;100.00;97297.84;4386223;80;35072;-77
2021/11/30 23:09:05;;;;;;;4.40;1.50;;;;;;;3.28;100.00;97291.56;4402081;80;28537;-75
2021/11/30 23:15:10;;;;;;;5.33;1.47;;;;;;;3.30;100.00;97303.27;4380379;79;28476;-76
2021/11/30 23:21:14;;;;;;;6.30;1.80;;;;;;;3.33;100.00;97321.41;4424735;79;28512;-75
2021/11/30 23:27:18;;;;;;;4.62;1.82;;;;;;;3.28;100.00;97323.94;4403127;80;28521;-76
2021/11/30 23:33:27;;;;;;;5.30;1.67;;;;;;;3.33;100.00;97328.05;4383288;80;28505;-78
2021/11/30 23:39:30;;;;;;;4.42;1.75;;;;;;;3.40;100.00;97339.39;4397573;80;28487;-78
2021/11/30 23:45:33;;;;;;;5.30;1.60;;;;;;;3.35;100.00;97333.97;4386936;80;28462;-76
2021/11/30 23:51:35;;;;;;;5.55;1.80;;;;;;;3.29;100.00;97362.75;4390743;80;28516;-76
2021/11/30 23:57:37;;;;;;;5.92;1.82;;;;;;;3.30;100.00;97367.84;4383643;79;28465;-76
